createdAt,value
2022-12-07T00:01:09.937Z,14.4
2022-12-07T00:02:25.075Z,14.4
2022-12-07T00:03:41.321Z,14.4
2022-12-07T00:04:57.519Z,14.4
2022-12-07T00:06:13.640Z,14.4
2022-12-07T00:07:29.840Z,14.4
2022-12-07T00:08:46.073Z,14.4
2022-12-07T00:10:02.211Z,14.4
2022-12-07T00:11:18.398Z,14.4
2022-12-07T00:12:34.646Z,14.4
2022-12-07T00:13:50.775Z,14.4
2022-12-07T00:15:07.024Z,14.4
2022-12-07T00:16:23.217Z,14.4
2022-12-07T00:17:39.412Z,14.4
2022-12-07T00:18:54.558Z,14.4
2022-12-07T00:20:10.814Z,14.4
2022-12-07T00:21:26.987Z,14.4
2022-12-07T00:22:43.115Z,14.4
2022-12-07T00:23:59.296Z,14.4
2022-12-07T00:25:15.568Z,14.4
2022-12-07T00:26:31.751Z,14.4
2022-12-07T00:27:47.935Z,14.4
2022-12-07T00:29:04.128Z,14.4
2022-12-07T00:30:20.319Z,14.4
2022-12-07T00:31:36.506Z,14.4
2022-12-07T00:32:52.634Z,14.4
2022-12-07T00:34:08.873Z,14.5
2022-12-07T00:35:24.011Z,14.5
2022-12-07T00:36:40.283Z,14.5
2022-12-07T00:37:56.391Z,14.5
2022-12-07T00:39:12.659Z,14.5
2022-12-07T00:40:28.785Z,14.4
2022-12-07T00:41:45.030Z,14.4
2022-12-07T00:43:01.222Z,14.4
2022-12-07T00:44:17.411Z,14.4
2022-12-07T00:45:33.527Z,14.4
2022-12-07T00:46:49.798Z,14.4
2022-12-07T00:48:05.915Z,14.4
2022-12-07T00:49:22.162Z,14.4
2022-12-07T00:50:38.295Z,14.4
2022-12-07T00:51:53.567Z,14.4
2022-12-07T00:53:09.752Z,14.4
2022-12-07T00:54:25.938Z,14.4
2022-12-07T00:55:42.067Z,14.4
2022-12-07T00:56:58.326Z,14.4
2022-12-07T00:58:14.439Z,14.4
2022-12-07T00:59:30.706Z,14.4
2022-12-07T01:00:46.891Z,14.4
2022-12-07T01:02:03.086Z,14.4
2022-12-07T01:03:19.205Z,14.4
2022-12-07T01:04:35.466Z,14.4
2022-12-07T01:05:51.657Z,14.4
2022-12-07T01:07:07.838Z,14.4
2022-12-07T01:08:23.050Z,14.4
2022-12-07T01:09:39.158Z,14.4
2022-12-07T01:10:55.354Z,14.4
2022-12-07T01:12:11.619Z,14.4
2022-12-07T01:13:27.810Z,14.4
2022-12-07T01:14:43.984Z,14.4
2022-12-07T01:16:00.171Z,14.4
2022-12-07T01:17:16.366Z,14.4
2022-12-07T01:18:32.472Z,14.4
2022-12-07T01:19:48.751Z,14.4
2022-12-07T01:21:04.934Z,14.4
2022-12-07T01:22:21.134Z,14.4
2022-12-07T01:23:37.322Z,14.4
2022-12-07T01:24:52.438Z,14.4
2022-12-07T01:26:08.641Z,14.3
2022-12-07T01:27:24.813Z,14.3
2022-12-07T01:28:41.006Z,14.3
2022-12-07T01:29:57.270Z,14.3
2022-12-07T01:31:13.459Z,14.3
2022-12-07T01:32:29.655Z,14.3
2022-12-07T01:33:45.847Z,14.3
2022-12-07T01:35:02.029Z,14.3
2022-12-07T01:36:18.143Z,14.3
2022-12-07T01:37:34.413Z,14.3
2022-12-07T01:38:50.599Z,14.3
2022-12-07T01:40:06.712Z,14.3
2022-12-07T01:41:21.986Z,14.3
2022-12-07T01:42:38.172Z,14.3
2022-12-07T01:43:54.291Z,14.3
2022-12-07T01:45:10.552Z,14.3
2022-12-07T01:46:26.755Z,14.3
2022-12-07T01:47:41.964Z,14.2
2022-12-07T01:48:58.063Z,14.2
2022-12-07T01:50:14.347Z,14.3
2022-12-07T01:51:30.525Z,14.3
2022-12-07T01:52:46.719Z,14.3
2022-12-07T01:54:02.907Z,14.3
2022-12-07T01:55:19.088Z,14.3
2022-12-07T01:56:35.290Z,14.3
2022-12-07T01:57:51.465Z,14.4
2022-12-07T01:59:07.654Z,14.3
2022-12-07T02:00:23.850Z,14.4
2022-12-07T02:01:40.043Z,14.5
2022-12-07T02:02:56.230Z,14.5
2022-12-07T02:04:11.355Z,14.5
2022-12-07T02:05:27.539Z,14.5
2022-12-07T02:06:43.821Z,14.5
2022-12-07T02:08:00.010Z,14.5
2022-12-07T02:09:16.183Z,14.5
2022-12-07T02:10:32.387Z,14.5
2022-12-07T02:11:48.477Z,14.5
2022-12-07T02:13:04.755Z,14.5
2022-12-07T02:14:20.950Z,14.5
2022-12-07T02:15:37.129Z,14.5
2022-12-07T02:16:53.322Z,14.5
2022-12-07T02:18:09.418Z,14.5
2022-12-07T02:19:25.612Z,14.5
2022-12-07T02:20:40.913Z,14.5
2022-12-07T02:21:57.107Z,14.5
2022-12-07T02:23:13.290Z,14.5
2022-12-07T02:24:29.477Z,14.5
2022-12-07T02:25:45.675Z,14.5
2022-12-07T02:27:01.771Z,14.5
2022-12-07T02:28:18.046Z,14.5
2022-12-07T02:29:34.239Z,14.5
2022-12-07T02:30:50.416Z,14.5
2022-12-07T02:32:06.619Z,14.5
2022-12-07T02:33:22.710Z,14.5
2022-12-07T02:34:38.888Z,14.5
2022-12-07T02:35:55.186Z,14.5
2022-12-07T02:37:10.393Z,14.5
2022-12-07T02:38:26.471Z,14.5
2022-12-07T02:39:42.758Z,14.5
2022-12-07T02:40:58.950Z,14.5
2022-12-07T02:42:15.055Z,14.5
2022-12-07T02:43:31.229Z,14.5
2022-12-07T02:44:47.418Z,14.5
2022-12-07T02:46:03.713Z,14.5
2022-12-07T02:47:19.897Z,14.4
2022-12-07T02:48:36.090Z,14.4
2022-12-07T02:49:52.180Z,14.5
2022-12-07T02:51:08.457Z,14.4
2022-12-07T02:52:24.658Z,14.4
2022-12-07T02:53:39.863Z,14.5
2022-12-07T02:54:56.044Z,14.4
2022-12-07T02:56:12.145Z,14.4
2022-12-07T02:57:28.431Z,14.4
2022-12-07T02:58:44.619Z,14.4
2022-12-07T03:00:00.710Z,14.4
2022-12-07T03:01:16.996Z,14.4
2022-12-07T03:02:33.089Z,14.4
2022-12-07T03:03:49.379Z,14.4
2022-12-07T03:05:05.467Z,14.4
2022-12-07T03:06:21.744Z,14.4
2022-12-07T03:07:37.932Z,14.4
2022-12-07T03:08:54.121Z,14.4
2022-12-07T03:10:09.244Z,14.4
2022-12-07T03:11:25.531Z,14.4
2022-12-07T03:12:41.716Z,14.4
2022-12-07T03:13:57.912Z,14.4
2022-12-07T03:15:13.992Z,14.4
2022-12-07T03:16:30.291Z,14.5
2022-12-07T03:17:46.365Z,14.5
2022-12-07T03:19:02.652Z,14.4
2022-12-07T03:20:18.753Z,14.5
2022-12-07T03:21:34.942Z,14.5
2022-12-07T03:22:51.230Z,14.4
2022-12-07T03:24:07.418Z,14.4
2022-12-07T03:25:23.507Z,14.4
2022-12-07T03:26:38.807Z,14.4
2022-12-07T03:27:54.892Z,14.4
2022-12-07T03:29:11.195Z,14.4
2022-12-07T03:30:27.378Z,14.4
2022-12-07T03:31:43.577Z,14.4
2022-12-07T03:32:59.660Z,14.4
2022-12-07T03:34:15.848Z,14.4
2022-12-07T03:35:32.145Z,14.4
2022-12-07T03:36:48.333Z,14.4
2022-12-07T03:38:04.513Z,14.4
2022-12-07T03:39:20.708Z,14.4
2022-12-07T03:40:36.892Z,14.4
2022-12-07T03:41:53.073Z,14.4
2022-12-07T03:43:08.280Z,14.4
2022-12-07T03:44:24.473Z,14.4
2022-12-07T03:45:40.553Z,14.4
2022-12-07T03:46:56.752Z,14.4
2022-12-07T03:48:13.035Z,14.4
2022-12-07T03:49:29.228Z,14.4
2022-12-07T03:50:45.323Z,14.4
2022-12-07T03:52:01.604Z,14.4
2022-12-07T03:53:17.797Z,14.4
2022-12-07T03:54:33.990Z,14.4
2022-12-07T03:55:50.182Z,14.4
2022-12-07T03:57:06.359Z,14.4
2022-12-07T03:58:22.552Z,14.4
2022-12-07T03:59:38.859Z,14.4
2022-12-07T04:00:54.946Z,14.4
2022-12-07T04:02:11.242Z,14.4
2022-12-07T04:03:27.440Z,14.4
2022-12-07T04:04:43.622Z,14.4
2022-12-07T04:05:59.809Z,14.4
2022-12-07T04:07:15.998Z,14.4
2022-12-07T04:08:32.201Z,14.3
2022-12-07T04:09:48.272Z,14.3
2022-12-07T04:11:04.465Z,14.3
2022-12-07T04:12:20.642Z,14.3
2022-12-07T04:13:36.827Z,14.3
2022-12-07T04:14:53.127Z,14.3
2022-12-07T04:16:09.453Z,14.3
2022-12-07T04:17:25.643Z,14.3
2022-12-07T04:18:41.823Z,14.3
2022-12-07T04:19:58.023Z,14.3
2022-12-07T04:21:14.081Z,14.3
2022-12-07T04:22:30.282Z,14.3
2022-12-07T04:23:46.466Z,14.3
2022-12-07T04:25:02.648Z,14.3
2022-12-07T04:26:18.968Z,14.3
2022-12-07T04:27:35.153Z,14.4
2022-12-07T04:28:51.226Z,14.4
2022-12-07T04:30:07.521Z,14.4
2022-12-07T04:31:23.716Z,14.3
2022-12-07T04:32:38.812Z,14.3
2022-12-07T04:33:55.103Z,14.3
2022-12-07T04:35:11.309Z,14.3
2022-12-07T04:36:27.364Z,14.3
2022-12-07T04:37:43.557Z,14.3
2022-12-07T04:38:59.755Z,14.3
2022-12-07T04:40:16.066Z,14.3
2022-12-07T04:41:32.243Z,14.3
2022-12-07T04:42:48.442Z,14.3
2022-12-07T04:44:04.497Z,14.3
2022-12-07T04:45:20.000Z,14.3
2022-12-07T04:46:37.007Z,14.3
2022-12-07T04:47:53.063Z,14.3
2022-12-07T04:49:08.394Z,14.3
2022-12-07T04:50:24.466Z,14.3
2022-12-07T04:51:40.660Z,14.3
2022-12-07T04:52:56.966Z,14.3
2022-12-07T04:54:13.029Z,14.3
2022-12-07T04:55:29.353Z,14.3
2022-12-07T04:56:45.401Z,14.3
2022-12-07T04:58:01.000Z,14.3
2022-12-07T04:59:17.790Z,14.3
2022-12-07T05:00:34.090Z,14.3
2022-12-07T05:01:50.294Z,14.3
2022-12-07T05:03:06.351Z,14.3
2022-12-07T05:04:22.539Z,14.3
2022-12-07T05:05:37.870Z,14.3
2022-12-07T05:06:53.934Z,14.3
2022-12-07T05:08:10.256Z,14.3
2022-12-07T05:09:26.313Z,14.3
2022-12-07T05:10:42.624Z,14.3
2022-12-07T05:11:58.829Z,14.3
2022-12-07T05:13:15.005Z,14.3
2022-12-07T05:14:31.070Z,14.2
2022-12-07T05:15:47.252Z,14.3
2022-12-07T05:17:03.567Z,14.3
2022-12-07T05:18:19.766Z,14.2
2022-12-07T05:19:35.824Z,14.3
2022-12-07T05:20:52.135Z,14.2
2022-12-07T05:22:07.213Z,14.2
2022-12-07T05:23:23.418Z,14.2
2022-12-07T05:24:39.718Z,14.2
2022-12-07T05:25:55.923Z,14.2
2022-12-07T05:27:12.097Z,14.2
2022-12-07T05:28:28.287Z,14.2
2022-12-07T05:29:44.355Z,14.2
2022-12-07T05:31:00.682Z,14.2
2022-12-07T05:32:16.867Z,14.2
2022-12-07T05:33:33.057Z,14.3
2022-12-07T05:34:49.105Z,14.3
2022-12-07T05:36:05.436Z,14.4
2022-12-07T05:37:21.489Z,14.4
2022-12-07T05:38:36.828Z,14.4
2022-12-07T05:39:53.022Z,14.4
2022-12-07T05:41:09.081Z,14.4
2022-12-07T05:42:25.265Z,14.4
2022-12-07T05:43:41.575Z,14.4
2022-12-07T05:44:57.645Z,14.4
2022-12-07T05:46:13.962Z,14.4
2022-12-07T05:47:30.145Z,14.4
2022-12-07T05:48:46.335Z,14.4
2022-12-07T05:50:02.521Z,14.4
2022-12-07T05:51:18.708Z,14.4
2022-12-07T05:52:34.775Z,14.4
2022-12-07T05:53:50.951Z,14.4
2022-12-07T05:55:06.294Z,14.4
2022-12-07T05:56:22.495Z,14.4
2022-12-07T05:57:38.677Z,14.4
2022-12-07T05:58:54.877Z,14.4
2022-12-07T06:00:10.917Z,14.4
2022-12-07T06:01:27.111Z,14.4
2022-12-07T06:02:42.456Z,14.4
2022-12-07T06:03:58.642Z,14.4
2022-12-07T06:05:14.829Z,14.4
2022-12-07T06:06:30.881Z,14.4
2022-12-07T06:07:47.072Z,14.4
2022-12-07T06:09:03.396Z,14.4
2022-12-07T06:10:19.587Z,14.4
2022-12-07T06:11:35.650Z,14.4
2022-12-07T06:12:51.826Z,14.4
2022-12-07T06:14:08.159Z,14.4
2022-12-07T06:15:24.210Z,14.4
2022-12-07T06:16:40.532Z,14.4
2022-12-07T06:17:56.729Z,14.4
2022-12-07T06:19:11.939Z,14.4
2022-12-07T06:20:28.119Z,14.3
2022-12-07T06:21:44.307Z,14.4
2022-12-07T06:23:00.363Z,14.4
2022-12-07T06:24:16.682Z,14.4
2022-12-07T06:25:32.876Z,14.3
2022-12-07T06:26:49.072Z,14.3
2022-12-07T06:28:05.250Z,14.3
2022-12-07T06:29:21.313Z,14.3
2022-12-07T06:30:37.497Z,14.3
2022-12-07T06:31:53.825Z,14.3
2022-12-07T06:33:10.007Z,14.4
2022-12-07T06:34:26.207Z,14.4
2022-12-07T06:35:41.414Z,14.3
2022-12-07T06:36:57.597Z,14.3
2022-12-07T06:38:13.641Z,14.4
2022-12-07T06:39:29.832Z,14.3
2022-12-07T06:40:46.171Z,14.3
2022-12-07T06:42:02.203Z,14.3
2022-12-07T06:43:18.539Z,14.3
2022-12-07T06:44:34.731Z,14.3
2022-12-07T06:45:50.766Z,14.3
2022-12-07T06:47:07.105Z,14.4
2022-12-07T06:48:23.304Z,14.4
2022-12-07T06:49:39.489Z,14.4
2022-12-07T06:50:55.524Z,14.4
2022-12-07T06:52:10.885Z,14.4
2022-12-07T06:53:26.935Z,14.4
2022-12-07T06:54:43.114Z,14.3
2022-12-07T06:55:59.454Z,14.4
2022-12-07T06:57:15.495Z,14.4
2022-12-07T06:58:31.678Z,14.3
2022-12-07T06:59:47.866Z,14.3
2022-12-07T07:01:04.051Z,14.3
2022-12-07T07:02:20.385Z,14.3
2022-12-07T07:03:36.575Z,14.3
2022-12-07T07:04:52.765Z,14.3
2022-12-07T07:06:08.797Z,14.3
2022-12-07T07:07:24.990Z,14.3
2022-12-07T07:08:40.191Z,14.3
2022-12-07T07:09:56.384Z,14.3
2022-12-07T07:11:12.718Z,14.3
2022-12-07T07:12:28.750Z,14.3
2022-12-07T07:13:45.098Z,14.3
2022-12-07T07:15:01.133Z,14.3
2022-12-07T07:16:17.305Z,14.3
2022-12-07T07:17:33.655Z,14.3
2022-12-07T07:18:49.677Z,14.3
2022-12-07T07:20:06.033Z,14.4
2022-12-07T07:21:22.224Z,14.4
2022-12-07T07:22:38.408Z,14.3
2022-12-07T07:23:54.436Z,14.4
2022-12-07T07:25:09.794Z,14.3
2022-12-07T07:26:25.987Z,14.3
2022-12-07T07:27:42.157Z,14.3
2022-12-07T07:28:58.206Z,14.3
2022-12-07T07:30:14.546Z,14.3
2022-12-07T07:31:30.568Z,14.4
2022-12-07T07:32:46.919Z,14.4
2022-12-07T07:34:02.940Z,14.4
2022-12-07T07:35:19.138Z,14.4
2022-12-07T07:36:35.485Z,14.4
2022-12-07T07:37:51.674Z,14.4
2022-12-07T07:39:07.702Z,14.4
2022-12-07T07:40:24.048Z,14.4
2022-12-07T07:41:39.253Z,14.4
2022-12-07T07:42:55.280Z,14.4
2022-12-07T07:44:11.626Z,14.4
2022-12-07T07:45:27.808Z,14.4
2022-12-07T07:46:43.832Z,14.4
2022-12-07T07:48:00.027Z,14.4
2022-12-07T07:49:16.359Z,14.4
2022-12-07T07:50:32.548Z,14.4
2022-12-07T07:51:48.575Z,14.4
2022-12-07T07:53:04.940Z,14.4
2022-12-07T07:54:21.123Z,14.4
2022-12-07T07:55:37.154Z,14.4
2022-12-07T07:56:53.329Z,14.4
2022-12-07T07:58:08.701Z,14.4
2022-12-07T07:59:24.718Z,14.4
2022-12-07T08:00:41.077Z,14.5
2022-12-07T08:01:57.268Z,14.4
2022-12-07T08:03:13.453Z,14.5
2022-12-07T08:04:29.477Z,14.5
2022-12-07T08:05:45.826Z,14.4
2022-12-07T08:07:01.854Z,14.5
2022-12-07T08:08:18.025Z,14.5
2022-12-07T08:09:34.228Z,14.5
2022-12-07T08:10:50.405Z,14.5
2022-12-07T08:12:06.756Z,14.5
2022-12-07T08:13:22.774Z,14.5
2022-12-07T08:14:37.984Z,14.5
2022-12-07T08:15:54.332Z,14.5
2022-12-07T08:17:10.365Z,14.5
2022-12-07T08:18:26.717Z,14.4
2022-12-07T08:19:42.907Z,14.4
2022-12-07T08:20:58.913Z,14.5
2022-12-07T08:22:15.116Z,14.5
2022-12-07T08:23:31.460Z,14.5
2022-12-07T08:24:47.490Z,14.4
2022-12-07T08:26:03.676Z,14.4
2022-12-07T08:27:19.860Z,14.5
2022-12-07T08:28:36.212Z,14.5
2022-12-07T08:29:52.409Z,14.5
2022-12-07T08:31:07.612Z,14.5
2022-12-07T08:32:23.627Z,14.5
2022-12-07T08:33:39.970Z,14.5
2022-12-07T08:34:56.176Z,14.4
2022-12-07T08:36:12.343Z,14.5
2022-12-07T08:37:28.541Z,14.5
2022-12-07T08:38:44.567Z,14.5
2022-12-07T08:40:00.750Z,14.5
2022-12-07T08:41:17.108Z,14.5
2022-12-07T08:42:33.298Z,14.5
2022-12-07T08:43:49.483Z,14.5
2022-12-07T08:45:05.488Z,14.5
2022-12-07T08:46:21.680Z,14.5
2022-12-07T08:47:36.887Z,14.5
2022-12-07T08:48:53.241Z,14.5
2022-12-07T08:50:09.267Z,14.5
2022-12-07T08:51:25.615Z,14.5
2022-12-07T08:52:41.804Z,14.5
2022-12-07T08:53:58.000Z,14.5
2022-12-07T08:55:14.000Z,14.6
2022-12-07T08:56:30.377Z,14.6
2022-12-07T08:57:46.394Z,14.6
2022-12-07T08:59:02.755Z,14.6
2022-12-07T09:00:18.751Z,14.6
2022-12-07T09:01:35.117Z,14.6
2022-12-07T09:02:51.313Z,14.6
2022-12-07T09:04:06.513Z,14.6
2022-12-07T09:05:22.532Z,14.6
2022-12-07T09:06:38.891Z,14.6
2022-12-07T09:07:54.899Z,14.6
2022-12-07T09:09:11.251Z,14.6
2022-12-07T09:10:27.282Z,14.6
2022-12-07T09:11:43.628Z,14.6
2022-12-07T09:12:59.817Z,14.6
2022-12-07T09:14:16.013Z,14.6
2022-12-07T09:15:32.197Z,14.6
2022-12-07T09:16:48.385Z,14.6
2022-12-07T09:18:04.396Z,14.6
2022-12-07T09:19:20.767Z,14.6
2022-12-07T09:20:35.972Z,14.6
2022-12-07T09:21:52.158Z,14.6
2022-12-07T09:23:08.341Z,14.6
2022-12-07T09:24:24.356Z,14.6
2022-12-07T09:25:40.722Z,14.6
2022-12-07T09:26:56.903Z,14.6
2022-12-07T09:28:13.095Z,14.6
2022-12-07T09:29:29.276Z,14.6
2022-12-07T09:30:45.473Z,14.6
2022-12-07T09:32:01.467Z,14.6
2022-12-07T09:33:17.839Z,14.6
2022-12-07T09:34:34.033Z,14.6
2022-12-07T09:35:50.214Z,14.6
2022-12-07T09:37:05.414Z,14.6
2022-12-07T09:38:21.597Z,14.6
2022-12-07T09:39:37.789Z,14.6
2022-12-07T09:40:53.792Z,14.6
2022-12-07T09:42:09.995Z,14.6
2022-12-07T09:43:26.350Z,14.6
2022-12-07T09:44:42.550Z,14.6
2022-12-07T09:45:58.735Z,14.6
2022-12-07T09:47:14.924Z,14.6
2022-12-07T09:48:30.926Z,14.6
2022-12-07T09:49:47.293Z,14.6
2022-12-07T09:51:03.483Z,14.6
2022-12-07T09:52:19.476Z,14.6
2022-12-07T09:53:34.867Z,14.6
2022-12-07T09:54:50.874Z,14.6
2022-12-07T09:56:07.072Z,14.6
2022-12-07T09:57:23.239Z,14.6
2022-12-07T09:58:39.625Z,14.6
2022-12-07T09:59:55.818Z,14.6
2022-12-07T10:01:11.998Z,14.6
2022-12-07T10:02:28.187Z,14.6
2022-12-07T10:03:44.193Z,14.6
2022-12-07T10:05:00.553Z,14.6
2022-12-07T10:06:16.566Z,14.6
2022-12-07T10:07:32.756Z,14.6
2022-12-07T10:08:48.941Z,14.6
2022-12-07T10:10:04.336Z,14.6
2022-12-07T10:11:20.333Z,14.6
2022-12-07T10:12:36.702Z,14.6
2022-12-07T10:13:52.890Z,14.6
2022-12-07T10:15:09.076Z,14.6
2022-12-07T10:16:25.271Z,14.6
2022-12-07T10:17:40.474Z,14.6
2022-12-07T10:18:56.480Z,14.6
2022-12-07T10:20:12.843Z,14.6
2022-12-07T10:21:29.035Z,14.6
2022-12-07T10:22:45.232Z,14.6
2022-12-07T10:24:01.408Z,14.6
2022-12-07T10:25:17.600Z,14.6
2022-12-07T10:26:33.599Z,14.6
2022-12-07T10:27:49.771Z,14.6
2022-12-07T10:29:05.976Z,14.6
2022-12-07T10:30:22.338Z,14.6
2022-12-07T10:31:38.542Z,14.7
2022-12-07T10:32:54.528Z,14.6
2022-12-07T10:34:11.025Z,14.6
2022-12-07T10:35:27.213Z,14.6
2022-12-07T10:36:43.398Z,14.6
2022-12-07T10:37:59.589Z,14.6
2022-12-07T10:39:15.777Z,14.6
2022-12-07T10:40:31.769Z,14.6
2022-12-07T10:41:48.150Z,14.6
2022-12-07T10:43:04.350Z,14.6
2022-12-07T10:44:20.333Z,14.6
2022-12-07T10:45:36.724Z,14.7
2022-12-07T10:46:52.931Z,14.8
2022-12-07T10:48:09.101Z,15
2022-12-07T10:49:25.089Z,15.1
2022-12-07T10:50:40.496Z,15.2
2022-12-07T10:51:56.478Z,15.3
2022-12-07T10:53:12.670Z,15.3
2022-12-07T10:54:29.050Z,15.2
2022-12-07T10:55:45.240Z,15.1
2022-12-07T10:57:01.216Z,15
2022-12-07T10:58:17.414Z,14.9
2022-12-07T10:59:33.802Z,14.9
2022-12-07T11:00:49.987Z,14.9
2022-12-07T11:02:06.172Z,14.9
2022-12-07T11:03:22.368Z,14.8
2022-12-07T11:04:38.344Z,14.8
2022-12-07T11:05:54.528Z,14.8
2022-12-07T11:07:09.937Z,14.8
2022-12-07T11:08:26.118Z,14.8
2022-12-07T11:09:42.119Z,14.8
2022-12-07T11:10:58.307Z,14.8
2022-12-07T11:12:14.486Z,14.8
2022-12-07T11:13:30.878Z,14.8
2022-12-07T11:14:47.068Z,14.8
2022-12-07T11:16:03.258Z,14.8
2022-12-07T11:17:19.442Z,14.8
2022-12-07T11:18:35.632Z,14.8
2022-12-07T11:19:51.602Z,14.8
2022-12-07T11:21:08.008Z,14.8
2022-12-07T11:22:24.186Z,14.8
2022-12-07T11:23:39.179Z,14.9
2022-12-07T11:24:55.591Z,14.9
2022-12-07T11:26:11.567Z,15
2022-12-07T11:27:27.741Z,15
2022-12-07T11:28:44.146Z,15
2022-12-07T11:30:00.325Z,15.1
2022-12-07T11:31:16.319Z,15.1
2022-12-07T11:32:32.716Z,15.1
2022-12-07T11:33:48.896Z,15.1
2022-12-07T11:35:05.090Z,15.1
2022-12-07T11:36:21.058Z,15.1
2022-12-07T11:37:37.462Z,15.1
2022-12-07T11:38:53.647Z,15.1
2022-12-07T11:40:08.847Z,15.1
2022-12-07T11:41:25.037Z,15.1
2022-12-07T11:42:41.011Z,15.1
2022-12-07T11:43:57.404Z,15.1
2022-12-07T11:45:13.600Z,15.1
2022-12-07T11:46:29.587Z,15.1
2022-12-07T11:47:45.978Z,15.1
2022-12-07T11:49:01.952Z,15.1
2022-12-07T11:50:18.136Z,15.1
2022-12-07T11:51:34.537Z,15.1
2022-12-07T11:52:50.721Z,15.1
2022-12-07T11:54:06.904Z,15.1
2022-12-07T11:55:23.091Z,15.1
2022-12-07T11:56:39.284Z,15.1
2022-12-07T11:57:54.275Z,15.1
2022-12-07T11:59:10.685Z,15.1
2022-12-07T12:00:26.863Z,15.1
2022-12-07T12:01:42.847Z,15
2022-12-07T12:02:59.246Z,15
2022-12-07T12:04:15.422Z,15
2022-12-07T12:05:31.401Z,15
2022-12-07T12:06:47.814Z,15
2022-12-07T12:08:03.999Z,15
2022-12-07T12:09:20.185Z,15
2022-12-07T12:10:36.151Z,15
2022-12-07T12:11:52.550Z,15
2022-12-07T12:13:08.531Z,15
2022-12-07T12:14:23.737Z,15
2022-12-07T12:15:40.132Z,15
2022-12-07T12:16:56.312Z,15
2022-12-07T12:18:12.499Z,15
2022-12-07T12:19:28.482Z,15.1
2022-12-07T12:20:44.659Z,15.1
2022-12-07T12:22:00.863Z,15.1
2022-12-07T12:23:17.248Z,15.1
2022-12-07T12:24:33.448Z,15.1
2022-12-07T12:25:49.641Z,15.1
2022-12-07T12:27:05.598Z,15.1
2022-12-07T12:28:21.790Z,15.1
2022-12-07T12:29:38.198Z,15.1
2022-12-07T12:30:53.176Z,15.1
2022-12-07T12:32:09.588Z,15.1
2022-12-07T12:33:25.776Z,15.1
2022-12-07T12:34:41.959Z,15.1
2022-12-07T12:35:57.937Z,15
2022-12-07T12:37:14.343Z,15
2022-12-07T12:38:30.533Z,15
2022-12-07T12:39:46.486Z,15
2022-12-07T12:41:02.893Z,15
2022-12-07T12:42:18.865Z,15
2022-12-07T12:43:35.000Z,15
2022-12-07T12:44:51.471Z,15
2022-12-07T12:46:07.650Z,15
2022-12-07T12:47:22.849Z,15
2022-12-07T12:48:39.050Z,15
2022-12-07T12:49:55.220Z,15
2022-12-07T12:51:11.183Z,15
2022-12-07T12:52:27.386Z,15
2022-12-07T12:53:43.000Z,15
2022-12-07T12:54:59.980Z,15
2022-12-07T12:56:16.171Z,15
2022-12-07T12:57:32.356Z,15
2022-12-07T12:58:48.312Z,14.9
2022-12-07T13:00:04.737Z,15
2022-12-07T13:01:20.915Z,15
2022-12-07T13:02:37.112Z,15
2022-12-07T13:03:52.000Z,15
2022-12-07T13:05:08.491Z,15
2022-12-07T13:06:24.467Z,15
2022-12-07T13:07:40.867Z,15
2022-12-07T13:08:56.835Z,15
2022-12-07T13:10:13.255Z,15
2022-12-07T13:11:29.195Z,15
2022-12-07T13:12:45.402Z,15
2022-12-07T13:14:01.577Z,15
2022-12-07T13:15:17.987Z,15
2022-12-07T13:16:34.174Z,15
2022-12-07T13:17:50.136Z,15
2022-12-07T13:19:06.329Z,15
2022-12-07T13:20:21.760Z,15
2022-12-07T13:21:37.950Z,15
2022-12-07T13:22:54.128Z,15
2022-12-07T13:24:10.317Z,15
2022-12-07T13:25:26.290Z,15
2022-12-07T13:26:42.690Z,15
2022-12-07T13:27:58.894Z,14.9
2022-12-07T13:29:15.065Z,14.9
2022-12-07T13:30:31.271Z,14.9
2022-12-07T13:31:47.219Z,14.9
2022-12-07T13:33:03.641Z,14.9
2022-12-07T13:34:19.826Z,14.9
2022-12-07T13:35:36.010Z,14.9
2022-12-07T13:36:50.979Z,14.9
2022-12-07T13:38:07.409Z,14.9
2022-12-07T13:39:23.353Z,14.9
2022-12-07T13:40:39.782Z,14.9
2022-12-07T13:41:55.956Z,14.9
2022-12-07T13:43:11.909Z,14.9
2022-12-07T13:44:28.355Z,14.9
2022-12-07T13:45:44.537Z,14.9
2022-12-07T13:47:00.712Z,14.9
2022-12-07T13:48:16.898Z,14.8
2022-12-07T13:49:33.101Z,14.8
2022-12-07T13:50:49.273Z,14.9
2022-12-07T13:52:05.228Z,14.9
2022-12-07T13:53:20.686Z,14.8
2022-12-07T13:54:36.864Z,14.8
2022-12-07T13:55:52.806Z,14.8
2022-12-07T13:57:09.224Z,14.8
2022-12-07T13:58:25.409Z,14.8
2022-12-07T13:59:41.376Z,14.8
2022-12-07T14:00:57.796Z,14.8
2022-12-07T14:02:13.981Z,14.8
2022-12-07T14:03:30.168Z,14.8
2022-12-07T14:04:46.367Z,14.8
2022-12-07T14:06:02.314Z,14.8
2022-12-07T14:07:18.000Z,14.8
2022-12-07T14:08:34.916Z,14.8
2022-12-07T14:09:49.881Z,14.8
2022-12-07T14:11:06.315Z,14.7
2022-12-07T14:12:22.248Z,14.7
2022-12-07T14:13:38.695Z,14.7
2022-12-07T14:14:54.624Z,14.7
2022-12-07T14:16:11.051Z,14.8
2022-12-07T14:17:27.259Z,14.7
2022-12-07T14:18:43.203Z,14.7
2022-12-07T14:19:59.622Z,14.7
2022-12-07T14:21:15.802Z,14.7
2022-12-07T14:22:31.745Z,14.7
2022-12-07T14:23:48.196Z,14.7
2022-12-07T14:25:04.378Z,14.7
2022-12-07T14:26:19.567Z,14.7
2022-12-07T14:27:35.523Z,14.7
2022-12-07T14:28:51.942Z,14.7
2022-12-07T14:30:08.134Z,14.7
2022-12-07T14:31:24.325Z,14.7
2022-12-07T14:32:39.289Z,14.7
2022-12-07T14:33:55.475Z,14.7
2022-12-07T14:35:11.669Z,14.7
2022-12-07T14:36:28.103Z,14.7
2022-12-07T14:37:44.029Z,14.7
2022-12-07T14:39:00.467Z,14.7
2022-12-07T14:40:16.656Z,14.7
2022-12-07T14:41:32.856Z,14.7
2022-12-07T14:42:49.033Z,14.7
2022-12-07T14:44:05.220Z,14.6
2022-12-07T14:45:21.172Z,14.7
2022-12-07T14:46:37.351Z,14.7
2022-12-07T14:47:53.783Z,14.7
2022-12-07T14:49:08.991Z,14.6
2022-12-07T14:50:24.927Z,14.6
2022-12-07T14:51:41.366Z,14.6
2022-12-07T14:52:57.554Z,14.6
2022-12-07T14:54:13.733Z,14.6
2022-12-07T14:55:29.923Z,14.6
2022-12-07T14:56:46.116Z,14.6
2022-12-07T14:58:02.059Z,14.6
2022-12-07T14:59:18.484Z,14.6
2022-12-07T15:00:34.420Z,14.6
2022-12-07T15:01:50.853Z,14.6
2022-12-07T15:03:07.060Z,14.6
2022-12-07T15:04:23.246Z,14.6
2022-12-07T15:05:38.437Z,14.6
2022-12-07T15:06:54.626Z,14.6
2022-12-07T15:08:10.571Z,14.6
2022-12-07T15:09:27.011Z,14.6
2022-12-07T15:10:42.941Z,14.6
2022-12-07T15:11:59.132Z,14.6
2022-12-07T15:13:15.566Z,14.6
2022-12-07T15:14:31.753Z,14.6
2022-12-07T15:15:47.680Z,14.6
2022-12-07T15:17:04.129Z,14.5
2022-12-07T15:18:20.322Z,14.5
2022-12-07T15:19:36.508Z,14.6
2022-12-07T15:20:52.443Z,14.5
2022-12-07T15:22:07.892Z,14.5
2022-12-07T15:23:23.818Z,14.5
2022-12-07T15:24:40.266Z,14.5
2022-12-07T15:25:56.446Z,14.5
2022-12-07T15:27:12.384Z,14.5
2022-12-07T15:28:28.829Z,14.5
2022-12-07T15:29:45.012Z,14.5
2022-12-07T15:31:00.954Z,14.5
2022-12-07T15:32:17.388Z,14.5
2022-12-07T15:33:33.581Z,14.5
2022-12-07T15:34:49.773Z,14.5
2022-12-07T15:36:05.962Z,14.6
2022-12-07T15:37:22.134Z,14.6
2022-12-07T15:38:37.341Z,14.6
2022-12-07T15:39:53.525Z,14.7
2022-12-07T15:41:09.732Z,14.7
2022-12-07T15:42:25.916Z,14.7
2022-12-07T15:43:41.834Z,14.7
2022-12-07T15:44:58.281Z,14.7
2022-12-07T15:46:14.474Z,14.7
2022-12-07T15:47:30.000Z,14.7
2022-12-07T15:48:46.844Z,14.6
2022-12-07T15:50:03.031Z,14.6
2022-12-07T15:51:19.214Z,14.7
2022-12-07T15:52:35.400Z,14.7
2022-12-07T15:53:51.334Z,14.7
2022-12-07T15:55:06.798Z,14.7
2022-12-07T15:56:22.985Z,14.7
2022-12-07T15:57:38.906Z,14.7
2022-12-07T15:58:55.370Z,14.7
2022-12-07T16:00:11.557Z,14.7
2022-12-07T16:01:27.470Z,14.7
2022-12-07T16:02:43.661Z,14.6
2022-12-07T16:04:00.120Z,14.6
2022-12-07T16:05:16.297Z,14.6
2022-12-07T16:06:32.213Z,14.6
2022-12-07T16:07:48.685Z,14.6
2022-12-07T16:09:04.595Z,14.6
2022-12-07T16:10:21.046Z,14.6
2022-12-07T16:11:36.257Z,14.6
2022-12-07T16:12:52.434Z,14.6
2022-12-07T16:14:08.364Z,14.6
2022-12-07T16:15:24.549Z,14.6
2022-12-07T16:16:40.728Z,14.6
2022-12-07T16:17:57.192Z,14.6
2022-12-07T16:19:13.382Z,14.6
2022-12-07T16:20:29.561Z,14.6
2022-12-07T16:21:45.485Z,14.6
2022-12-07T16:23:01.679Z,14.6
2022-12-07T16:24:17.855Z,14.6
2022-12-07T16:25:34.319Z,14.6
2022-12-07T16:26:50.501Z,14.6
2022-12-07T16:28:05.441Z,14.6
2022-12-07T16:29:21.618Z,14.6
2022-12-07T16:30:38.083Z,14.6
2022-12-07T16:31:54.002Z,14.6
2022-12-07T16:33:10.457Z,14.6
2022-12-07T16:34:26.649Z,14.5
2022-12-07T16:35:42.847Z,14.6
2022-12-07T16:36:59.032Z,14.6
2022-12-07T16:38:14.946Z,14.6
2022-12-07T16:39:31.136Z,14.5
2022-12-07T16:40:47.316Z,14.5
2022-12-07T16:42:03.778Z,14.5
2022-12-07T16:43:19.690Z,14.5
2022-12-07T16:44:35.000Z,14.5
2022-12-07T16:45:51.372Z,14.5
2022-12-07T16:47:07.283Z,14.5
2022-12-07T16:48:23.737Z,14.5
2022-12-07T16:49:39.658Z,14.5
2022-12-07T16:50:56.131Z,14.5
2022-12-07T16:52:12.307Z,14.5
2022-12-07T16:53:28.223Z,14.5
2022-12-07T16:54:44.410Z,14.4
2022-12-07T16:56:00.881Z,14.4
2022-12-07T16:57:17.078Z,14.4
2022-12-07T16:58:33.263Z,14.4